Private Wetterstation Wechselburg
Wetterdaten: Dienstag, 28.06.2016
Datum Zeit Temp. +2m Bodentemp. Temp.+5cm Temp. Wind Windchill X Diff Temp. Feuchte +2m Feuchte +5cm Sonnenschein Luftdruck Regen Wind Richtung Richtung Sonnenschein Taupunkt Windchill Windben
28.06.2016 00:00 15,0 C 23,5 C 15,6 C 15,2 C 15,2 C 0,2 C 75 % 76 % 0 % 1017,8 hPa 0,0 l/m 0,0 km/h (0 Bft) W 270 0 min 10,6 C 15,2 C 0,0 km/h (0 Bft)
28.06.2016 00:05 15,0 C 23,5 C 15,6 C 15,2 C 15,2 C 0,2 C 75 % 76 % 0 % 1017,4 hPa 0,0 l/m 0,0 km/h (0 Bft) NW 315 0 min 10,6 C 15,2 C 0,0 km/h (0 Bft)
28.06.2016 00:10 15,1 C 23,5 C 15,7 C 15,1 C 15,1 C 0,0 C 75 % 76 % 0 % 1017,4 hPa 0,0 l/m 0,0 km/h (0 Bft) W-NW 292 0 min 10,7 C 15,1 C 0,0 km/h (0 Bft)
28.06.2016 00:15 15,1 C 23,5 C 15,7 C 15,1 C 15,1 C 0,0 C 75 % 77 % 0 % 1017,4 hPa 0,0 l/m 0,0 km/h (0 Bft) O-SO 112 0 min 10,7 C 15,1 C 3,1 km/h (1 Bft)
28.06.2016 00:20 15,1 C 23,5 C 15,7 C 15,1 C 15,1 C 0,0 C 75 % 77 % 0 % 1017,4 hPa 0,0 l/m 0,0 km/h (0 Bft) O-NO 67 0 min 10,7 C 15,1 C 0,0 km/h (0 Bft)
28.06.2016 00:25 15,1 C 23,5 C 15,7 C 15,1 C 15,0 C 0,0 C 75 % 77 % 0 % 1017,9 hPa 0,0 l/m 0,0 km/h (0 Bft) O 90 0 min 10,7 C 15,0 C 0,0 km/h (0 Bft)
28.06.2016 00:30 15,1 C 23,5 C 15,6 C 15,1 C 15,0 C 0,0 C 75 % 77 % 0 % 1017,9 hPa 0,0 l/m 0,0 km/h (0 Bft) O-NO 67 0 min 10,7 C 15,0 C 0,0 km/h (0 Bft)
28.06.2016 00:35 15,1 C 23,5 C 15,6 C 15,0 C 14,9 C 0,0 C 75 % 77 % 0 % 1017,9 hPa 0,0 l/m 0,0 km/h (0 Bft) O-NO 67 0 min 10,7 C 14,9 C 0,0 km/h (0 Bft)
28.06.2016 00:49 15,1 C 23,5 C 15,6 C 15,0 C 14,7 C 0,0 C 76 % 78 % 0 % 1017,9 hPa 0,0 l/m 0,0 km/h (0 Bft) N 0 0 min 10,9 C 14,7 C 0,0 km/h (0 Bft)
28.06.2016 00:50 15,1 C 23,5 C 15,6 C 15,0 C 14,7 C 0,0 C 76 % 78 % 0 % 1017,9 hPa 0,0 l/m 0,0 km/h (0 Bft) N 0 0 min 10,9 C 14,7 C 0,0 km/h (0 Bft)
28.06.2016 00:55 14,9 C 23,5 C 15,5 C 14,8 C 14,5 C 0,0 C 76 % 78 % 0 % 1017,9 hPa 0,0 l/m 0,0 km/h (0 Bft) W 270 0 min 10,7 C 14,5 C 0,0 km/h (0 Bft)
28.06.2016 01:05 14,8 C 23,5 C 15,3 C 14,7 C 14,4 C 0,0 C 76 % 79 % 0 % 1017,9 hPa 0,0 l/m 0,0 km/h (0 Bft) W 270 0 min 10,6 C 14,4 C 0,0 km/h (0 Bft)
28.06.2016 01:10 14,7 C 23,4 C 15,3 C 14,7 C 14,6 C 0,0 C 76 % 79 % 0 % 1017,9 hPa 0,0 l/m 0,0 km/h (0 Bft) W 270 0 min 10,5 C 14,6 C 0,0 km/h (0 Bft)
28.06.2016 01:15 14,7 C 23,4 C 15,4 C 14,7 C 14,7 C 0,0 C 77 % 79 % 0 % 1017,9 hPa 0,0 l/m 0,0 km/h (0 Bft) W 270 0 min 10,7 C 14,7 C 0,0 km/h (0 Bft)
28.06.2016 01:20 14,6 C 23,4 C 15,4 C 14,9 C 14,9 C 0,3 C 77 % 80 % 0 % 1017,9 hPa 0,0 l/m 0,0 km/h (0 Bft) W 270 0 min 10,6 C 14,9 C 0,0 km/h (0 Bft)
28.06.2016 01:25 14,7 C 23,4 C 15,6 C 15,0 C 15,0 C 0,3 C 77 % 80 % 0 % 1018,1 hPa 0,0 l/m 0,0 km/h (0 Bft) S-SW 202 0 min 10,7 C 15,0 C 0,0 km/h (0 Bft)
28.06.2016 01:30 14,6 C 23,4 C 15,6 C 15,2 C 15,2 C 0,6 C 77 % 80 % 0 % 1018,1 hPa 0,0 l/m 0,0 km/h (0 Bft) S-SW 202 0 min 10,6 C 15,2 C 0,0 km/h (0 Bft)
28.06.2016 01:35 14,7 C 23,4 C 15,7 C 15,3 C 15,3 C 0,6 C 77 % 80 % 0 % 1018,1 hPa 0,0 l/m 0,0 km/h (0 Bft) S-SW 202 0 min 10,7 C 15,3 C 0,0 km/h (0 Bft)
28.06.2016 01:40 14,7 C 23,4 C 15,7 C 15,4 C 15,4 C 0,7 C 77 % 80 % 0 % 1018,1 hPa 0,0 l/m 0,0 km/h (0 Bft) S-SW 202 0 min 10,7 C 15,4 C 0,0 km/h (0 Bft)
28.06.2016 01:45 14,7 C 23,4 C 15,7 C 15,4 C 15,4 C 0,7 C 77 % 80 % 0 % 1018,1 hPa 0,0 l/m 0,0 km/h (0 Bft) S-SW 202 0 min 10,7 C 15,4 C 0,0 km/h (0 Bft)
28.06.2016 01:50 14,8 C 23,4 C 15,9 C 15,5 C 15,5 C 0,7 C 78 % 81 % 0 % 1018,1 hPa 0,0 l/m 0,2 km/h (0 Bft) N 360 0 min 11,0 C 15,5 C 0,0 km/h (0 Bft)
28.06.2016 01:55 14,8 C 23,4 C 15,9 C 15,5 C 15,5 C 0,7 C 78 % 80 % 0 % 1018,1 hPa 0,0 l/m 0,3 km/h (0 Bft) SW 225 0 min 11,0 C 15,5 C 0,0 km/h (0 Bft)
28.06.2016 02:00 14,8 C 23,4 C 15,9 C 15,6 C 15,6 C 0,8 C 78 % 81 % 0 % 1018,1 hPa 0,0 l/m 0,2 km/h (0 Bft) NW 315 0 min 11,0 C 15,6 C 0,0 km/h (0 Bft)
28.06.2016 02:05 14,9 C 23,4 C 16,0 C 15,6 C 15,6 C 0,7 C 78 % 81 % 0 % 1017,9 hPa 0,0 l/m 0,0 km/h (0 Bft) S 180 0 min 11,1 C 15,6 C 0,0 km/h (0 Bft)
28.06.2016 02:10 14,8 C 23,4 C 16,1 C 15,6 C 15,6 C 0,8 C 78 % 81 % 0 % 1017,9 hPa 0,0 l/m 0,0 km/h (0 Bft) SO 135 0 min 11,0 C 15,6 C 0,0 km/h (0 Bft)
28.06.2016 02:15 14,8 C 23,4 C 16,1 C 15,6 C 15,6 C 0,8 C 78 % 81 % 0 % 1017,9 hPa 0,0 l/m 0,0 km/h (0 Bft) S-SW 202 0 min 11,0 C 15,6 C 0,0 km/h (0 Bft)
28.06.2016 02:20 14,9 C 23,4 C 16,0 C 15,6 C 15,6 C 0,7 C 78 % 81 % 0 % 1017,9 hPa 0,0 l/m 0,0 km/h (0 Bft) S-SO 157 0 min 11,1 C 15,6 C 0,0 km/h (0 Bft)
28.06.2016 02:25 14,9 C 23,4 C 16,0 C 15,6 C 15,6 C 0,7 C 78 % 81 % 0 % 1017,9 hPa 0,0 l/m 0,2 km/h (0 Bft) SW 225 0 min 11,1 C 15,6 C 0,0 km/h (0 Bft)
28.06.2016 02:30 14,9 C 23,4 C 16,1 C 15,3 C 15,3 C 0,4 C 79 % 81 % 0 % 1017,9 hPa 0,0 l/m 0,6 km/h (0 Bft) W 270 0 min 11,3 C 15,3 C 2,7 km/h (1 Bft)
28.06.2016 02:35 14,9 C 23,4 C 16,0 C 15,0 C 15,0 C 0,1 C 79 % 81 % 0 % 1017,9 hPa 0,0 l/m 1,1 km/h (1 Bft) S-SW 202 0 min 11,3 C 15,0 C 6,3 km/h (2 Bft)
28.06.2016 02:40 14,9 C 23,4 C 16,0 C 14,9 C 14,8 C 0,0 C 79 % 82 % 0 % 1017,9 hPa 0,0 l/m 1,8 km/h (1 Bft) SW 225 0 min 11,3 C 14,8 C 1,6 km/h (1 Bft)
28.06.2016 02:45 14,8 C 23,4 C 16,0 C 14,8 C 14,8 C 0,0 C 80 % 83 % 0 % 1017,9 hPa 0,0 l/m 1,3 km/h (1 Bft) W-SW 247 0 min 11,4 C 14,8 C 0,0 km/h (0 Bft)
28.06.2016 02:50 14,8 C 23,5 C 15,8 C 14,8 C 14,7 C 0,0 C 80 % 83 % 0 % 1017,9 hPa 0,0 l/m 0,3 km/h (0 Bft) W 270 0 min 11,4 C 14,7 C 0,0 km/h (0 Bft)
28.06.2016 02:55 14,9 C 23,5 C 15,8 C 14,8 C 14,6 C 0,0 C 80 % 84 % 0 % 1017,9 hPa 0,0 l/m 0,2 km/h (0 Bft) W-SW 247 0 min 11,5 C 14,6 C 0,0 km/h (0 Bft)
28.06.2016 03:00 14,8 C 23,6 C 15,7 C 14,7 C 14,6 C 0,0 C 80 % 84 % 0 % 1017,9 hPa 0,0 l/m 0,3 km/h (0 Bft) S 180 0 min 11,4 C 14,6 C 0,0 km/h (0 Bft)
28.06.2016 03:05 14,7 C 23,7 C 15,7 C 14,7 C 14,7 C 0,0 C 81 % 85 % 0 % 1017,9 hPa 0,0 l/m 0,3 km/h (0 Bft) W-SW 247 0 min 11,5 C 14,7 C 0,0 km/h (0 Bft)
28.06.2016 03:10 14,6 C 23,7 C 15,6 C 14,7 C 14,7 C 0,1 C 81 % 85 % 0 % 1017,9 hPa 0,0 l/m 0,2 km/h (0 Bft) SO 135 0 min 11,4 C 14,7 C 0,0 km/h (0 Bft)
28.06.2016 03:15 14,6 C 23,8 C 15,5 C 14,7 C 14,7 C 0,1 C 82 % 86 % 0 % 1017,9 hPa 0,0 l/m 0,2 km/h (0 Bft) S 180 0 min 11,6 C 14,7 C 3,2 km/h (1 Bft)
28.06.2016 03:20 14,7 C 23,8 C 15,5 C 14,7 C 14,7 C 0,0 C 82 % 86 % 0 % 1017,9 hPa 0,0 l/m 0,2 km/h (0 Bft) O-NO 67 0 min 11,7 C 14,7 C 0,0 km/h (0 Bft)
28.06.2016 03:25 14,5 C 23,8 C 15,3 C 14,7 C 14,7 C 0,2 C 82 % 87 % 0 % 1017,8 hPa 0,0 l/m 0,3 km/h (0 Bft) S 180 0 min 11,5 C 14,7 C 0,0 km/h (0 Bft)
28.06.2016 03:30 14,5 C 23,9 C 15,3 C 14,7 C 14,7 C 0,2 C 82 % 87 % 0 % 1017,8 hPa 0,0 l/m 0,2 km/h (0 Bft) S 180 0 min 11,5 C 14,7 C 0,0 km/h (0 Bft)
28.06.2016 03:35 14,4 C 23,8 C 15,3 C 14,8 C 14,8 C 0,4 C 83 % 87 % 0 % 1017,8 hPa 0,7 l/m 0,0 km/h (0 Bft) W-SW 247 0 min 11,5 C 14,8 C 1,6 km/h (1 Bft)
28.06.2016 03:48 14,5 C 23,8 C 15,2 C 14,9 C 14,9 C 0,4 C 83 % 88 % 0 % 1017,5 hPa 0,0 l/m 0,0 km/h (0 Bft) N-NO 22 0 min 11,6 C 14,9 C 0,0 km/h (0 Bft)
28.06.2016 03:49 14,5 C 23,8 C 15,1 C 14,9 C 14,9 C 0,4 C 83 % 88 % 0 % 1017,5 hPa 0,0 l/m 0,0 km/h (0 Bft) O-NO 67 0 min 11,6 C 14,9 C 0,0 km/h (0 Bft)
28.06.2016 03:50 14,5 C 23,8 C 15,1 C 14,9 C 14,9 C 0,4 C 83 % 88 % 0 % 1017,5 hPa 0,0 l/m 0,0 km/h (0 Bft) O-NO 67 0 min 11,6 C 14,9 C 0,0 km/h (0 Bft)
28.06.2016 03:51 14,5 C 23,8 C 15,1 C 14,9 C 14,9 C 0,4 C 83 % 88 % 0 % 1017,5 hPa 0,0 l/m 0,0 km/h (0 Bft) O-NO 67 0 min 11,6 C 14,9 C 0,0 km/h (0 Bft)
28.06.2016 03:52 14,5 C 23,8 C 15,1 C 14,9 C 14,9 C 0,4 C 83 % 88 % 0 % 1017,5 hPa 0,0 l/m 0,0 km/h (0 Bft) O-NO 67 0 min 11,6 C 14,9 C 0,0 km/h (0 Bft)
28.06.2016 03:53 14,4 C 23,8 C 15,0 C 14,8 C 14,8 C 0,4 C 83 % 89 % 0 % 1017,5 hPa 0,0 l/m 0,0 km/h (0 Bft) SO 135 0 min 11,5 C 14,8 C 0,0 km/h (0 Bft)
28.06.2016 03:59 14,4 C 23,8 C 15,1 C 14,9 C 14,9 C 0,5 C 84 % 89 % 0 % 1017,5 hPa 0,0 l/m 0,0 km/h (0 Bft) S-SO 157 0 min 11,7 C 14,9 C 0,0 km/h (0 Bft)
28.06.2016 04:05 14,5 C 23,8 C 15,1 C 14,9 C 14,9 C 0,4 C 84 % 89 % 0 % 1017,3 hPa 0,0 l/m 0,0 km/h (0 Bft) O-NO 67 0 min 11,8 C 14,9 C 0,0 km/h (0 Bft)
28.06.2016 04:10 14,4 C 23,8 C 15,1 C 14,9 C 14,9 C 0,5 C 84 % 89 % 0 % 1017,3 hPa 0,0 l/m 0,0 km/h (0 Bft) NO 45 0 min 11,7 C 14,9 C 0,0 km/h (0 Bft)
28.06.2016 04:20 14,3 C 23,8 C 15,1 C 14,8 C 14,8 C 0,5 C 85 % 89 % 0 % 1017,3 hPa 0,0 l/m 0,0 km/h (0 Bft) N 360 0 min 11,8 C 14,8 C 0,0 km/h (0 Bft)
28.06.2016 04:25 14,3 C 23,8 C 15,1 C 14,8 C 14,8 C 0,5 C 85 % 89 % 0 % 1017,2 hPa 0,0 l/m 0,0 km/h (0 Bft) O 90 0 min 11,8 C 14,8 C 0,0 km/h (0 Bft)
28.06.2016 04:30 14,3 C 23,8 C 15,1 C 14,8 C 14,8 C 0,5 C 85 % 89 % 0 % 1017,2 hPa 0,0 l/m 0,0 km/h (0 Bft) N 360 0 min 11,8 C 14,8 C 0,0 km/h (0 Bft)
28.06.2016 04:35 14,4 C 23,8 C 15,1 C 14,8 C 14,8 C 0,4 C 85 % 89 % 0 % 1017,2 hPa 0,0 l/m 0,0 km/h (0 Bft) W-NW 292 0 min 11,9 C 14,8 C 0,0 km/h (0 Bft)
28.06.2016 04:40 14,4 C 23,8 C 15,1 C 14,8 C 14,8 C 0,4 C 86 % 89 % 0 % 1017,2 hPa 0,0 l/m 0,0 km/h (0 Bft) S-SW 202 0 min 12,1 C 14,8 C 0,0 km/h (0 Bft)
28.06.2016 04:45 14,3 C 23,8 C 15,1 C 14,8 C 14,8 C 0,5 C 86 % 89 % 0 % 1017,1 hPa 0,0 l/m 0,0 km/h (0 Bft) SW 225 0 min 12,0 C 14,8 C 0,0 km/h (0 Bft)
28.06.2016 04:50 14,3 C 23,7 C 15,2 C 14,8 C 14,8 C 0,5 C 86 % 89 % 0 % 1017,1 hPa 0,0 l/m 0,0 km/h (0 Bft) O-SO 112 0 min 12,0 C 14,8 C 0,0 km/h (0 Bft)
28.06.2016 04:55 14,4 C 23,7 C 15,3 C 14,9 C 14,9 C 0,5 C 86 % 89 % 0 % 1017,1 hPa 0,0 l/m 0,0 km/h (0 Bft) O-NO 67 0 min 12,1 C 14,9 C 0,0 km/h (0 Bft)
28.06.2016 05:00 14,3 C 23,7 C 15,3 C 14,8 C 14,8 C 0,5 C 86 % 88 % 0 % 1017,1 hPa 0,0 l/m 0,0 km/h (0 Bft) O-NO 67 0 min 12,0 C 14,8 C 0,0 km/h (0 Bft)
28.06.2016 05:05 14,3 C 23,7 C 15,2 C 14,7 C 14,7 C 0,4 C 86 % 87 % 0 % 1017,2 hPa 0,0 l/m 0,0 km/h (0 Bft) NO 45 0 min 12,0 C 14,7 C 0,0 km/h (0 Bft)
28.06.2016 05:10 14,3 C 23,7 C 15,2 C 14,6 C 14,6 C 0,3 C 86 % 87 % 0 % 1017,2 hPa 0,0 l/m 0,0 km/h (0 Bft) O-NO 67 0 min 12,0 C 14,6 C 0,0 km/h (0 Bft)
28.06.2016 05:15 14,2 C 23,7 C 15,1 C 14,5 C 14,5 C 0,3 C 86 % 87 % 8 % 1017,2 hPa 0,0 l/m 0,0 km/h (0 Bft) O-NO 67 5 min 11,9 C 14,5 C 0,0 km/h (0 Bft)
28.06.2016 05:20 14,1 C 23,7 C 15,1 C 14,4 C 14,4 C 0,3 C 86 % 86 % 8 % 1017,2 hPa 0,0 l/m 0,0 km/h (0 Bft) O 90 0 min 11,8 C 14,4 C 0,0 km/h (0 Bft)
28.06.2016 05:25 14,1 C 23,7 C 15,1 C 14,3 C 14,3 C 0,2 C 86 % 86 % 5 % 1017,1 hPa 0,0 l/m 0,0 km/h (0 Bft) NW 315 0 min 11,8 C 14,3 C 0,0 km/h (0 Bft)
28.06.2016 05:30 14,0 C 23,7 C 14,9 C 14,3 C 14,3 C 0,3 C 86 % 85 % 8 % 1017,1 hPa 0,0 l/m 0,0 km/h (0 Bft) N-NW 337 0 min 11,7 C 14,3 C 0,0 km/h (0 Bft)
28.06.2016 05:35 14,1 C 23,7 C 14,9 C 14,3 C 14,3 C 0,2 C 86 % 85 % 5 % 1017,1 hPa 0,0 l/m 0,0 km/h (0 Bft) SW 225 0 min 11,8 C 14,3 C 0,0 km/h (0 Bft)
28.06.2016 05:40 14,1 C 23,7 C 14,8 C 14,3 C 14,3 C 0,2 C 86 % 84 % 5 % 1017,1 hPa 0,0 l/m 0,0 km/h (0 Bft) O-NO 67 0 min 11,8 C 14,3 C 0,0 km/h (0 Bft)
28.06.2016 05:45 14,0 C 23,7 C 14,8 C 14,2 C 14,2 C 0,2 C 86 % 84 % 5 % 1016,9 hPa 0,0 l/m 0,0 km/h (0 Bft) W-NW 292 0 min 11,7 C 14,2 C 0,0 km/h (0 Bft)
28.06.2016 05:50 13,9 C 23,7 C 14,8 C 14,1 C 14,1 C 0,2 C 87 % 84 % 5 % 1016,9 hPa 0,0 l/m 0,0 km/h (0 Bft) N-NW 337 0 min 11,8 C 14,1 C 0,0 km/h (0 Bft)
28.06.2016 05:55 13,9 C 23,7 C 14,8 C 14,1 C 14,1 C 0,2 C 87 % 83 % 5 % 1016,9 hPa 0,0 l/m 0,0 km/h (0 Bft) N-NW 337 0 min 11,8 C 14,1 C 0,0 km/h (0 Bft)
28.06.2016 06:00 13,9 C 23,7 C 14,8 C 14,1 C 14,1 C 0,2 C 87 % 83 % 5 % 1016,9 hPa 0,0 l/m 0,0 km/h (0 Bft) N-NW 337 0 min 11,8 C 14,1 C 0,0 km/h (0 Bft)
28.06.2016 06:05 13,9 C 23,7 C 14,8 C 14,3 C 14,3 C 0,4 C 87 % 82 % 11 % 1016,8 hPa 0,0 l/m 0,0 km/h (0 Bft) O-NO 67 0 min 11,8 C 14,3 C 0,0 km/h (0 Bft)
28.06.2016 06:10 14,0 C 23,7 C 14,9 C 14,3 C 14,3 C 0,3 C 88 % 81 % 8 % 1016,8 hPa 0,0 l/m 0,0 km/h (0 Bft) NO 45 0 min 12,0 C 14,3 C 0,0 km/h (0 Bft)
28.06.2016 06:15 13,9 C 23,7 C 14,8 C 14,4 C 14,4 C 0,5 C 87 % 81 % 13 % 1016,8 hPa 0,0 l/m 0,0 km/h (0 Bft) O-NO 67 0 min 11,8 C 14,4 C 0,0 km/h (0 Bft)
28.06.2016 06:20 13,9 C 23,7 C 14,9 C 14,5 C 14,5 C 0,6 C 87 % 80 % 16 % 1016,8 hPa 0,0 l/m 0,0 km/h (0 Bft) NW 315 0 min 11,8 C 14,5 C 0,0 km/h (0 Bft)
28.06.2016 06:25 14,0 C 23,7 C 14,9 C 14,6 C 14,6 C 0,6 C 88 % 80 % 16 % 1016,9 hPa 0,0 l/m 0,0 km/h (0 Bft) NW 315 0 min 12,0 C 14,6 C 0,0 km/h (0 Bft)
28.06.2016 06:30 14,1 C 23,7 C 15,0 C 14,8 C 14,8 C 0,7 C 88 % 79 % 18 % 1016,9 hPa 0,0 l/m 0,0 km/h (0 Bft) NW 315 0 min 12,1 C 14,8 C 0,0 km/h (0 Bft)
28.06.2016 06:35 14,2 C 23,7 C 15,1 C 15,0 C 15,0 C 0,8 C 88 % 79 % 21 % 1016,9 hPa 0,0 l/m 0,0 km/h (0 Bft) N 360 0 min 12,2 C 15,0 C 0,0 km/h (0 Bft)
28.06.2016 06:51 14,8 C 23,7 C 15,7 C 15,9 C 15,9 C 1,1 C 89 % 77 % 29 % 1017,1 hPa 0,0 l/m 0,0 km/h (0 Bft) N 0 0 min 13,0 C 15,9 C 0,0 km/h (0 Bft)
28.06.2016 06:55 14,9 C 23,7 C 15,8 C 16,1 C 16,1 C 1,2 C 90 % 76 % 32 % 1017,1 hPa 0,0 l/m 0,0 km/h (0 Bft) N-NO 22 0 min 13,3 C 16,1 C 0,0 km/h (0 Bft)
28.06.2016 07:00 15,2 C 23,7 C 16,0 C 16,7 C 16,7 C 1,5 C 90 % 76 % 39 % 1017,1 hPa 0,0 l/m 0,0 km/h (0 Bft) W 270 0 min 13,6 C 16,7 C 0,0 km/h (0 Bft)
28.06.2016 07:05 15,4 C 23,7 C 16,3 C 17,6 C 17,6 C 2,2 C 90 % 76 % 58 % 1017,1 hPa 0,0 l/m 0,0 km/h (0 Bft) SW 225 0 min 13,8 C 17,6 C 0,0 km/h (0 Bft)
28.06.2016 07:10 15,7 C 23,7 C 16,3 C 18,2 C 18,2 C 2,5 C 90 % 76 % 66 % 1017,1 hPa 0,0 l/m 0,0 km/h (0 Bft) S-SO 157 0 min 14,1 C 18,2 C 0,0 km/h (0 Bft)
28.06.2016 07:15 15,6 C 23,7 C 16,3 C 18,3 C 18,3 C 2,7 C 90 % 76 % 71 % 1017,1 hPa 0,0 l/m 0,0 km/h (0 Bft) S-SW 202 0 min 14,0 C 18,3 C 0,0 km/h (0 Bft)
28.06.2016 07:20 15,8 C 23,7 C 16,5 C 18,6 C 18,6 C 2,8 C 90 % 76 % 74 % 1017,1 hPa 0,0 l/m 0,0 km/h (0 Bft) S 180 0 min 14,2 C 18,6 C 0,0 km/h (0 Bft)
28.06.2016 07:25 15,9 C 23,7 C 16,5 C 18,9 C 18,9 C 3,0 C 90 % 76 % 79 % 1016,9 hPa 0,0 l/m 0,0 km/h (0 Bft) S 180 0 min 14,3 C 18,9 C 0,0 km/h (0 Bft)
28.06.2016 07:30 16,2 C 23,6 C 16,7 C 19,5 C 19,5 C 3,3 C 90 % 76 % 87 % 1016,9 hPa 0,0 l/m 0,0 km/h (0 Bft) NW 315 5 min 14,6 C 19,5 C 0,0 km/h (0 Bft)
28.06.2016 07:35 16,3 C 23,5 C 16,7 C 19,6 C 19,6 C 3,3 C 90 % 76 % 87 % 1016,9 hPa 0,0 l/m 0,6 km/h (0 Bft) W-SW 247 5 min 14,7 C 19,6 C 1,9 km/h (1 Bft)
28.06.2016 07:40 16,2 C 23,5 C 16,7 C 19,3 C 19,3 C 3,1 C 89 % 77 % 82 % 1016,9 hPa 0,0 l/m 0,8 km/h (0 Bft) W-SW 247 0 min 14,4 C 19,3 C 2,1 km/h (1 Bft)
28.06.2016 07:45 16,1 C 23,5 C 16,8 C 19,2 C 19,2 C 3,1 C 89 % 77 % 82 % 1016,9 hPa 0,0 l/m 0,6 km/h (0 Bft) W 270 0 min 14,3 C 19,2 C 0,0 km/h (0 Bft)
28.06.2016 07:50 16,1 C 23,4 C 16,9 C 19,1 C 19,1 C 3,0 C 88 % 78 % 79 % 1016,9 hPa 0,0 l/m 1,6 km/h (1 Bft) W-SW 247 0 min 14,1 C 19,1 C 3,4 km/h (1 Bft)
28.06.2016 07:55 16,1 C 23,4 C 16,9 C 19,0 C 19,0 C 2,9 C 88 % 78 % 76 % 1016,9 hPa 0,0 l/m 1,4 km/h (1 Bft) SW 225 0 min 14,1 C 19,0 C 0,0 km/h (0 Bft)
28.06.2016 08:00 16,3 C 23,4 C 16,9 C 19,1 C 19,1 C 2,8 C 88 % 78 % 74 % 1016,9 hPa 0,0 l/m 0,8 km/h (0 Bft) S-SW 202 0 min 14,3 C 19,1 C 6,0 km/h (2 Bft)
28.06.2016 08:05 16,3 C 23,4 C 16,8 C 19,1 C 19,1 C 2,8 C 88 % 78 % 74 % 1017,1 hPa 0,0 l/m 0,8 km/h (0 Bft) NO 45 0 min 14,3 C 19,1 C 1,8 km/h (1 Bft)
28.06.2016 08:15 16,3 C 23,4 C 17,1 C 19,4 C 19,4 C 3,1 C 87 % 79 % 82 % 1017,1 hPa 0,0 l/m 1,3 km/h (1 Bft) W-SW 247 0 min 14,1 C 19,4 C 0,0 km/h (0 Bft)
28.06.2016 08:20 16,3 C 23,4 C 17,1 C 19,4 C 19,4 C 3,1 C 86 % 79 % 82 % 1017,1 hPa 0,0 l/m 1,9 km/h (1 Bft) S 180 0 min 14,0 C 19,4 C 1,8 km/h (1 Bft)
28.06.2016 08:25 16,3 C 23,4 C 16,9 C 19,1 C 19,1 C 2,8 C 86 % 80 % 74 % 1017,2 hPa 0,0 l/m 2,1 km/h (1 Bft) SW 225 0 min 14,0 C 19,1 C 0,0 km/h (0 Bft)
28.06.2016 08:30 16,2 C 23,4 C 16,9 C 18,8 C 18,8 C 2,6 C 85 % 80 % 68 % 1017,2 hPa 0,0 l/m 1,6 km/h (1 Bft) W-NW 292 0 min 13,7 C 18,8 C 3,5 km/h (1 Bft)
28.06.2016 08:35 16,1 C 23,4 C 16,9 C 18,7 C 18,7 C 2,6 C 85 % 81 % 68 % 1017,2 hPa 0,0 l/m 1,3 km/h (1 Bft) W-SW 247 0 min 13,6 C 18,7 C 2,6 km/h (1 Bft)
28.06.2016 08:40 16,2 C 23,5 C 16,9 C 18,5 C 18,5 C 2,3 C 85 % 81 % 61 % 1017,2 hPa 0,0 l/m 0,6 km/h (0 Bft) S 180 0 min 13,7 C 18,5 C 0,0 km/h (0 Bft)
28.06.2016 08:45 16,3 C 23,5 C 16,9 C 18,4 C 18,4 C 2,1 C 85 % 81 % 55 % 1017,1 hPa 0,0 l/m 0,5 km/h (0 Bft) SW 225 0 min 13,8 C 18,4 C 1,6 km/h (1 Bft)
28.06.2016 08:50 16,3 C 23,5 C 16,8 C 17,8 C 17,8 C 1,5 C 85 % 81 % 39 % 1017,1 hPa 0,0 l/m 0,8 km/h (0 Bft) S 180 0 min 13,8 C 17,8 C 0,0 km/h (0 Bft)
28.06.2016 08:55 16,3 C 23,5 C 16,8 C 17,4 C 17,4 C 1,1 C 85 % 81 % 29 % 1017,1 hPa 0,0 l/m 1,0 km/h (0 Bft) S-SW 202 0 min 13,8 C 17,4 C 2,6 km/h (1 Bft)
28.06.2016 09:00 16,1 C 23,6 C 16,9 C 17,1 C 17,1 C 1,0 C 85 % 82 % 26 % 1017,1 hPa 0,0 l/m 0,8 km/h (0 Bft) S-SW 202 0 min 13,6 C 17,1 C 7,2 km/h (2 Bft)
28.06.2016 09:10 16,1 C 23,6 C 16,7 C 16,6 C 16,6 C 0,5 C 85 % 82 % 13 % 1017,1 hPa 0,7 l/m 0,6 km/h (0 Bft) O-NO 67 0 min 13,6 C 16,6 C 1,6 km/h (1 Bft)
28.06.2016 09:15 16,0 C 23,6 C 16,5 C 16,4 C 16,4 C 0,4 C 85 % 82 % 11 % 1017,1 hPa 0,0 l/m 1,0 km/h (0 Bft) S-SO 157 0 min 13,5 C 16,4 C 2,6 km/h (1 Bft)
28.06.2016 09:25 15,9 C 23,7 C 16,4 C 16,5 C 16,5 C 0,6 C 85 % 81 % 16 % 1017,2 hPa 0,0 l/m 0,8 km/h (0 Bft) S-SW 202 0 min 13,4 C 16,5 C 0,0 km/h (0 Bft)
28.06.2016 09:30 16,0 C 23,7 C 16,5 C 16,8 C 16,8 C 0,8 C 86 % 80 % 21 % 1017,2 hPa 0,7 l/m 0,6 km/h (0 Bft) SW 225 0 min 13,7 C 16,8 C 0,0 km/h (0 Bft)
28.06.2016 09:35 16,0 C 23,7 C 16,4 C 16,9 C 16,9 C 0,9 C 86 % 80 % 24 % 1017,2 hPa 0,0 l/m 0,6 km/h (0 Bft) O-NO 67 0 min 13,7 C 16,9 C 2,1 km/h (1 Bft)
28.06.2016 09:52 16,7 C 23,7 C 16,9 C 18,0 C 18,0 C 1,3 C 87 % 78 % 34 % 1017,1 hPa 0,0 l/m 0,5 km/h (0 Bft) S-SO 157 0 min 14,5 C 18,0 C 2,9 km/h (1 Bft)
28.06.2016 09:53 16,7 C 23,7 C 16,9 C 18,0 C 18,0 C 1,3 C 87 % 78 % 34 % 1017,1 hPa 0,0 l/m 0,5 km/h (0 Bft) S-SO 157 0 min 14,5 C 18,0 C 2,9 km/h (1 Bft)
28.06.2016 09:54 16,7 C 23,7 C 16,8 C 18,0 C 18,0 C 1,3 C 87 % 78 % 34 % 1017,1 hPa 0,0 l/m 0,6 km/h (0 Bft) W-SW 247 0 min 14,5 C 18,0 C 1,8 km/h (1 Bft)
28.06.2016 09:55 16,7 C 23,7 C 16,8 C 18,0 C 18,0 C 1,3 C 87 % 78 % 34 % 1017,1 hPa 0,0 l/m 0,6 km/h (0 Bft) W-SW 247 0 min 14,5 C 18,0 C 1,8 km/h (1 Bft)
28.06.2016 09:56 16,7 C 23,7 C 16,8 C 18,0 C 18,0 C 1,3 C 87 % 78 % 34 % 1017,1 hPa 0,0 l/m 0,6 km/h (0 Bft) W-SW 247 0 min 14,5 C 18,0 C 1,8 km/h (1 Bft)
28.06.2016 09:58 16,9 C 0,0 C 16,9 C 18,2 C 18,2 C 1,3 C 87 % 78 % 34 % 1017,1 hPa 0,0 l/m 0,8 km/h (0 Bft) W-SW 247 0 min 14,7 C 18,2 C 1,9 km/h (1 Bft)
28.06.2016 10:02 16,9 C 0,0 C 16,9 C 18,2 C 18,2 C 1,3 C 87 % 78 % 34 % 1017,1 hPa 0,0 l/m 0,8 km/h (0 Bft) W-SW 247 0 min 14,7 C 18,2 C 1,9 km/h (1 Bft)
28.06.2016 10:10 16,8 C 0,0 C 17,1 C 18,2 C 18,2 C 1,4 C 86 % 78 % 37 % 1017,4 hPa 0,0 l/m 1,0 km/h (0 Bft) SW 225 0 min 14,4 C 18,2 C 0,0 km/h (0 Bft)
28.06.2016 10:15 16,9 C 0,0 C 16,9 C 18,0 C 18,0 C 1,1 C 86 % 78 % 29 % 1017,4 hPa 0,0 l/m 1,1 km/h (1 Bft) SO 135 0 min 14,5 C 18,0 C 0,0 km/h (0 Bft)
28.06.2016 10:25 16,4 C 0,0 C 16,7 C 17,0 C 17,0 C 0,6 C 85 % 79 % 16 % 1017,4 hPa 0,0 l/m 0,8 km/h (0 Bft) N-NW 337 0 min 13,9 C 17,0 C 0,0 km/h (0 Bft)
28.06.2016 10:30 16,3 C 0,0 C 16,7 C 16,8 C 16,8 C 0,5 C 85 % 79 % 13 % 1017,4 hPa 0,0 l/m 1,0 km/h (0 Bft) S 180 0 min 13,8 C 16,8 C 2,6 km/h (1 Bft)
28.06.2016 10:35 16,3 C 23,6 C 16,6 C 16,8 C 16,8 C 0,5 C 85 % 78 % 13 % 1017,4 hPa 0,0 l/m 1,1 km/h (1 Bft) NW 315 0 min 13,8 C 16,8 C 3,4 km/h (1 Bft)
28.06.2016 10:40 16,2 C 23,5 C 16,7 C 17,0 C 17,0 C 0,8 C 85 % 78 % 21 % 1017,4 hPa 0,0 l/m 1,4 km/h (1 Bft) W 270 0 min 13,7 C 17,0 C 4,7 km/h (1 Bft)
28.06.2016 10:45 16,3 C 23,5 C 16,8 C 17,2 C 17,2 C 0,9 C 85 % 78 % 24 % 1017,4 hPa 0,0 l/m 1,3 km/h (1 Bft) SW 225 0 min 13,8 C 17,2 C 2,3 km/h (1 Bft)
28.06.2016 10:50 16,3 C 23,5 C 16,9 C 17,9 C 17,9 C 1,6 C 85 % 78 % 42 % 1017,4 hPa 0,0 l/m 0,8 km/h (0 Bft) S 180 0 min 13,8 C 17,9 C 2,1 km/h (1 Bft)
28.06.2016 10:59 16,6 C 23,5 C 16,8 C 19,1 C 19,1 C 2,5 C 85 % 80 % 66 % 1017,4 hPa 0,0 l/m 0,2 km/h (0 Bft) SW 225 0 min 14,1 C 19,1 C 0,0 km/h (0 Bft)
28.06.2016 11:00 16,6 C 23,5 C 16,8 C 19,1 C 19,1 C 2,5 C 85 % 80 % 66 % 1017,4 hPa 0,0 l/m 0,2 km/h (0 Bft) SW 225 0 min 14,1 C 19,1 C 0,0 km/h (0 Bft)
28.06.2016 11:01 16,6 C 23,5 C 16,8 C 19,1 C 19,1 C 2,5 C 85 % 80 % 66 % 1017,4 hPa 0,0 l/m 0,2 km/h (0 Bft) SW 225 0 min 14,1 C 19,1 C 0,0 km/h (0 Bft)
28.06.2016 11:02 16,6 C 23,5 C 16,8 C 19,1 C 19,1 C 2,5 C 85 % 80 % 66 % 1017,4 hPa 0,0 l/m 0,2 km/h (0 Bft) SW 225 0 min 14,1 C 19,1 C 0,0 km/h (0 Bft)
28.06.2016 11:03 16,6 C 23,5 C 16,8 C 19,1 C 19,1 C 2,5 C 85 % 80 % 66 % 1017,4 hPa 0,0 l/m 0,2 km/h (0 Bft) SW 225 0 min 14,1 C 19,1 C 0,0 km/h (0 Bft)
28.06.2016 11:06 16,5 C 23,5 C 16,7 C 19,1 C 19,1 C 2,6 C 84 % 80 % 68 % 1017,7 hPa 0,0 l/m 0,0 km/h (0 Bft) W-NW 292 0 min 13,8 C 19,1 C 0,0 km/h (0 Bft)
28.06.2016 11:15 16,4 C 23,4 C 16,8 C 18,5 C 18,5 C 2,1 C 84 % 80 % 55 % 1017,7 hPa 0,0 l/m 0,2 km/h (0 Bft) W 270 0 min 13,7 C 18,5 C 0,0 km/h (0 Bft)
28.06.2016 11:20 16,6 C 23,5 C 16,9 C 18,4 C 18,4 C 1,8 C 84 % 80 % 47 % 1017,7 hPa 0,0 l/m 0,2 km/h (0 Bft) S-SW 202 0 min 13,9 C 18,4 C 0,0 km/h (0 Bft)
28.06.2016 11:25 16,6 C 23,5 C 17,1 C 18,4 C 18,4 C 1,8 C 84 % 79 % 47 % 1017,8 hPa 0,0 l/m 0,3 km/h (0 Bft) S 180 0 min 13,9 C 18,4 C 1,6 km/h (1 Bft)
28.06.2016 11:30 16,7 C 23,5 C 17,2 C 18,9 C 18,9 C 2,2 C 84 % 79 % 58 % 1017,8 hPa 0,0 l/m 0,5 km/h (0 Bft) S-SW 202 0 min 14,0 C 18,9 C 0,0 km/h (0 Bft)
28.06.2016 11:35 16,7 C 23,3 C 17,3 C 19,4 C 19,4 C 2,7 C 84 % 79 % 71 % 1017,8 hPa 0,0 l/m 0,8 km/h (0 Bft) S 180 0 min 14,0 C 19,4 C 0,0 km/h (0 Bft)
28.06.2016 11:40 16,8 C 23,2 C 17,5 C 20,3 C 20,3 C 3,5 C 83 % 79 % 92 % 1017,8 hPa 0,0 l/m 1,3 km/h (1 Bft) W-NW 292 5 min 13,9 C 20,3 C 1,8 km/h (1 Bft)
28.06.2016 11:45 17,0 C 23,2 C 17,5 C 20,7 C 20,7 C 3,7 C 83 % 80 % 97 % 1017,7 hPa 0,0 l/m 1,3 km/h (1 Bft) S 180 5 min 14,1 C 20,7 C 2,7 km/h (1 Bft)
28.06.2016 11:50 17,0 C 23,2 C 17,4 C 20,7 C 20,7 C 3,7 C 82 % 81 % 97 % 1017,7 hPa 0,0 l/m 1,0 km/h (0 Bft) W-SW 247 5 min 13,9 C 20,7 C 0,0 km/h (0 Bft)
28.06.2016 11:55 17,1 C 23,3 C 17,5 C 20,8 C 20,8 C 3,7 C 82 % 81 % 97 % 1017,7 hPa 0,0 l/m 0,6 km/h (0 Bft) S-SO 157 5 min 14,0 C 20,8 C 2,7 km/h (1 Bft)
28.06.2016 12:00 17,2 C 23,2 C 17,4 C 20,8 C 20,8 C 3,6 C 82 % 82 % 95 % 1017,7 hPa 0,0 l/m 0,6 km/h (0 Bft) W-NW 292 5 min 14,1 C 20,8 C 2,3 km/h (1 Bft)
28.06.2016 12:05 17,2 C 23,3 C 17,5 C 20,9 C 20,9 C 3,7 C 82 % 82 % 97 % 1017,6 hPa 0,0 l/m 0,6 km/h (0 Bft) W-SW 247 5 min 14,1 C 20,9 C 0,0 km/h (0 Bft)
28.06.2016 12:15 17,5 C 23,2 C 17,7 C 21,6 C 21,6 C 4,1 C 81 % 83 % 100 % 1017,6 hPa 0,0 l/m 1,0 km/h (0 Bft) W 270 10 min 14,2 C 21,6 C 0,0 km/h (0 Bft)
28.06.2016 12:20 17,7 C 23,1 C 17,8 C 22,6 C 22,6 C 4,9 C 80 % 83 % 100 % 1017,6 hPa 0,0 l/m 1,0 km/h (0 Bft) W-SW 247 5 min 14,2 C 22,6 C 3,7 km/h (1 Bft)
28.06.2016 12:25 18,0 C 23,1 C 17,9 C 23,2 C 23,2 C 5,2 C 79 % 84 % 100 % 1017,6 hPa 0,0 l/m 1,1 km/h (1 Bft) W 270 5 min 14,3 C 23,2 C 4,3 km/h (1 Bft)
28.06.2016 12:30 18,3 C 23,1 C 18,1 C 23,5 C 23,5 C 5,2 C 79 % 84 % 100 % 1017,6 hPa 0,0 l/m 1,1 km/h (1 Bft) O-NO 67 5 min 14,6 C 23,5 C 0,0 km/h (0 Bft)
28.06.2016 12:35 18,7 C 23,0 C 18,1 C 24,2 C 24,2 C 5,5 C 79 % 85 % 100 % 1017,6 hPa 0,0 l/m 0,6 km/h (0 Bft) SW 225 5 min 15,0 C 24,2 C 0,0 km/h (0 Bft)
28.06.2016 12:50 20,7 C 23,0 C 18,8 C 26,7 C 26,7 C 6,0 C 75 % 87 % 100 % 1017,6 hPa 0,0 l/m 0,5 km/h (0 Bft) N 360 15 min 16,1 C 26,7 C 0,0 km/h (0 Bft)
28.06.2016 12:55 21,0 C 23,0 C 18,8 C 26,3 C 26,3 C 5,3 C 73 % 87 % 100 % 1017,6 hPa 0,0 l/m 1,0 km/h (0 Bft) SW 225 5 min 16,0 C 26,3 C 1,6 km/h (1 Bft)
28.06.2016 13:00 21,5 C 23,0 C 19,1 C 26,6 C 26,6 C 5,1 C 72 % 88 % 100 % 1017,6 hPa 0,0 l/m 1,4 km/h (1 Bft) S-SW 202 5 min 16,2 C 26,6 C 8,0 km/h (2 Bft)
28.06.2016 13:05 21,8 C 23,0 C 19,3 C 27,2 C 27,2 C 5,4 C 71 % 88 % 100 % 1017,4 hPa 0,0 l/m 2,1 km/h (1 Bft) NW 315 5 min 16,3 C 27,2 C 3,2 km/h (1 Bft)
28.06.2016 13:10 22,0 C 23,0 C 19,6 C 28,2 C 28,2 C 6,2 C 70 % 88 % 100 % 1017,4 hPa 0,0 l/m 1,6 km/h (1 Bft) SW 225 5 min 16,3 C 28,2 C 4,2 km/h (1 Bft)
28.06.2016 13:15 22,5 C 23,0 C 19,7 C 28,7 C 28,7 C 6,2 C 69 % 89 % 100 % 1017,4 hPa 0,0 l/m 1,3 km/h (1 Bft) W 270 5 min 16,5 C 28,7 C 2,7 km/h (1 Bft)
28.06.2016 13:20 23,0 C 23,0 C 19,9 C 29,6 C 29,6 C 6,6 C 67 % 89 % 100 % 1017,4 hPa 0,0 l/m 1,6 km/h (1 Bft) NW 315 5 min 16,5 C 29,6 C 0,0 km/h (0 Bft)
28.06.2016 13:25 23,2 C 23,0 C 20,0 C 29,6 C 29,6 C 6,4 C 65 % 89 % 100 % 1016,9 hPa 0,0 l/m 1,8 km/h (1 Bft) SW 225 5 min 16,2 C 29,6 C 4,7 km/h (1 Bft)
28.06.2016 13:30 23,5 C 22,9 C 20,3 C 28,9 C 28,9 C 5,4 C 65 % 89 % 100 % 1016,9 hPa 0,0 l/m 1,8 km/h (1 Bft) SW 225 5 min 16,5 C 28,9 C 3,7 km/h (1 Bft)
28.06.2016 13:35 23,9 C 22,9 C 20,2 C 29,0 C 29,0 C 5,1 C 63 % 89 % 100 % 1016,9 hPa 0,0 l/m 1,8 km/h (1 Bft) S-SW 202 5 min 16,4 C 29,0 C 4,0 km/h (1 Bft)
28.06.2016 13:40 23,7 C 22,9 C 20,3 C 28,9 C 28,9 C 5,2 C 61 % 89 % 100 % 1016,9 hPa 0,0 l/m 1,4 km/h (1 Bft) W-SW 247 5 min 15,7 C 28,9 C 3,7 km/h (1 Bft)
28.06.2016 13:45 23,6 C 23,0 C 20,3 C 28,9 C 28,9 C 5,3 C 61 % 89 % 100 % 1016,9 hPa 0,0 l/m 1,3 km/h (1 Bft) W-SW 247 5 min 15,6 C 28,9 C 5,0 km/h (1 Bft)
28.06.2016 13:55 23,8 C 23,0 C 20,5 C 28,9 C 28,9 C 5,1 C 59 % 88 % 100 % 1016,9 hPa 0,0 l/m 1,8 km/h (1 Bft) SO 135 10 min 15,3 C 28,9 C 2,3 km/h (1 Bft)
28.06.2016 14:00 23,9 C 23,0 C 20,7 C 29,1 C 29,1 C 5,2 C 59 % 88 % 100 % 1016,9 hPa 0,0 l/m 1,6 km/h (1 Bft) SW 225 5 min 15,4 C 29,1 C 6,8 km/h (2 Bft)
28.06.2016 14:10 24,0 C 23,0 C 20,7 C 29,6 C 29,6 C 5,6 C 56 % 86 % 100 % 1016,5 hPa 0,0 l/m 1,4 km/h (1 Bft) O-SO 112 10 min 14,7 C 29,6 C 2,9 km/h (1 Bft)
28.06.2016 14:15 23,9 C 23,0 C 20,8 C 29,9 C 29,9 C 6,0 C 58 % 87 % 100 % 1016,5 hPa 0,0 l/m 1,4 km/h (1 Bft) S-SO 157 5 min 15,1 C 29,9 C 3,1 km/h (1 Bft)
28.06.2016 14:20 24,3 C 23,0 C 21,3 C 30,5 C 30,5 C 6,2 C 59 % 88 % 100 % 1016,5 hPa 0,0 l/m 1,6 km/h (1 Bft) O-NO 67 5 min 15,8 C 30,5 C 5,0 km/h (1 Bft)
28.06.2016 14:25 24,6 C 23,0 C 21,2 C 30,8 C 30,8 C 6,2 C 58 % 87 % 100 % 1016,4 hPa 0,0 l/m 1,8 km/h (1 Bft) S 180 5 min 15,8 C 30,8 C 2,7 km/h (1 Bft)
28.06.2016 14:30 24,7 C 23,0 C 21,5 C 30,3 C 30,3 C 5,6 C 56 % 88 % 100 % 1016,4 hPa 0,0 l/m 2,1 km/h (1 Bft) W-SW 247 5 min 15,3 C 30,3 C 4,5 km/h (1 Bft)
28.06.2016 14:35 24,8 C 23,0 C 21,8 C 30,5 C 30,5 C 5,7 C 56 % 88 % 100 % 1016,4 hPa 0,0 l/m 2,4 km/h (1 Bft) S 180 5 min 15,4 C 30,5 C 3,7 km/h (1 Bft)
28.06.2016 14:40 25,4 C 23,0 C 22,0 C 31,2 C 31,2 C 5,8 C 55 % 88 % 100 % 1016,4 hPa 0,0 l/m 1,9 km/h (1 Bft) W 270 5 min 15,7 C 31,2 C 3,1 km/h (1 Bft)
28.06.2016 14:50 24,9 C 23,0 C 21,5 C 29,2 C 29,2 C 4,3 C 53 % 87 % 100 % 1016,4 hPa 0,0 l/m 2,1 km/h (1 Bft) W 270 10 min 14,6 C 29,2 C 1,8 km/h (1 Bft)
28.06.2016 14:55 24,7 C 23,0 C 21,5 C 28,7 C 28,7 C 4,0 C 53 % 87 % 100 % 1016,4 hPa 0,0 l/m 1,9 km/h (1 Bft) SO 135 5 min 14,5 C 28,7 C 2,3 km/h (1 Bft)
28.06.2016 15:00 24,3 C 23,0 C 21,5 C 29,2 C 29,2 C 4,9 C 53 % 85 % 100 % 1016,4 hPa 0,0 l/m 1,8 km/h (1 Bft) S 180 5 min 14,1 C 29,2 C 2,1 km/h (1 Bft)
28.06.2016 15:05 24,0 C 23,0 C 21,3 C 28,8 C 28,8 C 4,8 C 54 % 83 % 100 % 1016,1 hPa 0,0 l/m 2,3 km/h (1 Bft) N 360 5 min 14,1 C 28,8 C 6,8 km/h (2 Bft)
28.06.2016 15:15 23,2 C 23,0 C 20,8 C 27,0 C 27,0 C 3,8 C 55 % 82 % 100 % 1016,1 hPa 0,0 l/m 2,3 km/h (1 Bft) NW 315 10 min 13,6 C 27,0 C 3,1 km/h (1 Bft)
28.06.2016 15:20 22,9 C 23,0 C 20,9 C 25,8 C 25,8 C 2,9 C 56 % 85 % 76 % 1016,1 hPa 0,0 l/m 1,8 km/h (1 Bft) N 360 0 min 13,6 C 25,8 C 2,4 km/h (1 Bft)
28.06.2016 15:30 23,4 C 23,0 C 21,5 C 27,6 C 27,6 C 4,2 C 55 % 84 % 100 % 1016,2 hPa 0,0 l/m 1,8 km/h (1 Bft) O-NO 67 10 min 13,8 C 27,6 C 2,6 km/h (1 Bft)
28.06.2016 15:40 23,9 C 23,1 C 21,9 C 29,2 C 29,2 C 5,3 C 55 % 84 % 100 % 1016,2 hPa 0,0 l/m 1,4 km/h (1 Bft) SO 135 10 min 14,3 C 29,2 C 3,1 km/h (1 Bft)
28.06.2016 15:47 24,2 C 23,1 C 22,1 C 29,2 C 29,2 C 5,0 C 55 % 84 % 100 % 1015,8 hPa 0,0 l/m 1,9 km/h (1 Bft) N 0 7 min 14,6 C 29,2 C 2,9 km/h (1 Bft)
28.06.2016 16:05 23,9 C 23,1 C 22,3 C 28,9 C 28,9 C 5,0 C 53 % 81 % 100 % 1015,6 hPa 0,0 l/m 0,6 km/h (0 Bft) S 180 18 min 13,7 C 28,9 C 2,3 km/h (1 Bft)
28.06.2016 16:10 23,9 C 23,1 C 22,0 C 28,7 C 28,7 C 4,8 C 52 % 79 % 100 % 1015,6 hPa 0,0 l/m 1,3 km/h (1 Bft) W-NW 292 5 min 13,4 C 28,7 C 4,5 km/h (1 Bft)
28.06.2016 16:15 23,6 C 23,1 C 21,9 C 28,0 C 28,0 C 4,4 C 52 % 76 % 100 % 1015,6 hPa 0,0 l/m 1,6 km/h (1 Bft) S-SW 202 5 min 13,2 C 28,0 C 0,0 km/h (0 Bft)
28.06.2016 16:20 23,5 C 23,1 C 21,6 C 27,1 C 27,1 C 3,6 C 52 % 78 % 95 % 1015,6 hPa 0,0 l/m 1,1 km/h (1 Bft) W-SW 247 5 min 13,1 C 27,1 C 0,0 km/h (0 Bft)
28.06.2016 16:25 23,5 C 23,1 C 21,5 C 26,6 C 26,6 C 3,1 C 54 % 78 % 82 % 1015,6 hPa 0,0 l/m 0,6 km/h (0 Bft) W 270 0 min 13,6 C 26,6 C 0,0 km/h (0 Bft)
28.06.2016 16:30 23,4 C 23,1 C 21,5 C 26,2 C 26,2 C 2,8 C 54 % 78 % 74 % 1015,6 hPa 0,0 l/m 0,6 km/h (0 Bft) S-SO 157 0 min 13,6 C 26,2 C 4,0 km/h (1 Bft)
28.06.2016 16:35 23,3 C 23,1 C 21,5 C 26,0 C 26,0 C 2,7 C 53 % 78 % 71 % 1015,6 hPa 0,0 l/m 1,1 km/h (1 Bft) SW 225 0 min 13,2 C 26,0 C 0,0 km/h (0 Bft)
28.06.2016 16:38 23,2 C 23,1 C 21,5 C 26,0 C 26,0 C 2,8 C 54 % 78 % 74 % 1015,6 hPa 0,0 l/m 1,0 km/h (0 Bft) SW 225 0 min 13,4 C 26,0 C 0,0 km/h (0 Bft)
28.06.2016 16:43 23,1 C 23,1 C 21,5 C 25,9 C 25,9 C 2,8 C 54 % 78 % 74 % 1015,4 hPa 0,0 l/m 0,5 km/h (0 Bft) S 180 0 min 13,3 C 25,9 C 0,0 km/h (0 Bft)
28.06.2016 16:48 23,1 C 23,1 C 21,2 C 25,6 C 25,6 C 2,5 C 54 % 78 % 66 % 1015,4 hPa 0,0 l/m 0,5 km/h (0 Bft) S-SW 202 0 min 13,3 C 25,6 C 0,0 km/h (0 Bft)
28.06.2016 16:53 23,0 C 23,2 C 21,2 C 25,5 C 25,5 C 2,5 C 54 % 78 % 66 % 1015,4 hPa 0,0 l/m 1,0 km/h (0 Bft) W-SW 247 0 min 13,2 C 25,5 C 0,0 km/h (0 Bft)
28.06.2016 16:58 22,8 C 23,2 C 21,3 C 25,4 C 25,4 C 2,6 C 55 % 77 % 68 % 1015,4 hPa 0,0 l/m 0,5 km/h (0 Bft) S-SO 157 0 min 13,3 C 25,4 C 0,0 km/h (0 Bft)
28.06.2016 17:03 22,7 C 23,2 C 21,2 C 25,4 C 25,4 C 2,7 C 55 % 76 % 71 % 1015,4 hPa 0,0 l/m 0,3 km/h (0 Bft) W-SW 247 0 min 13,2 C 25,4 C 0,0 km/h (0 Bft)
28.06.2016 17:08 22,5 C 23,2 C 21,3 C 25,3 C 25,3 C 2,8 C 56 % 75 % 74 % 1015,4 hPa 0,0 l/m 0,2 km/h (0 Bft) NW 315 0 min 13,3 C 25,3 C 0,0 km/h (0 Bft)
28.06.2016 17:13 22,5 C 23,2 C 21,1 C 25,1 C 25,1 C 2,6 C 55 % 76 % 68 % 1015,4 hPa 0,0 l/m 0,2 km/h (0 Bft) S-SO 157 0 min 13,0 C 25,1 C 0,0 km/h (0 Bft)
28.06.2016 17:18 22,5 C 23,2 C 20,9 C 24,6 C 24,6 C 2,1 C 55 % 75 % 55 % 1015,4 hPa 0,0 l/m 0,2 km/h (0 Bft) SO 135 0 min 13,0 C 24,6 C 0,0 km/h (0 Bft)
28.06.2016 17:23 22,5 C 23,2 C 20,8 C 24,3 C 24,3 C 1,8 C 55 % 75 % 47 % 1015,9 hPa 0,0 l/m 0,0 km/h (0 Bft) W-NW 292 0 min 13,0 C 24,3 C 0,0 km/h (0 Bft)
28.06.2016 17:28 22,4 C 23,2 C 20,7 C 23,6 C 23,6 C 1,2 C 55 % 76 % 32 % 1015,9 hPa 0,0 l/m 0,3 km/h (0 Bft) N-NW 337 0 min 12,9 C 23,6 C 0,0 km/h (0 Bft)
28.06.2016 17:33 22,3 C 23,2 C 20,7 C 23,3 C 23,3 C 1,0 C 56 % 76 % 26 % 1015,9 hPa 0,0 l/m 0,3 km/h (0 Bft) N-NW 337 0 min 13,1 C 23,3 C 0,0 km/h (0 Bft)
28.06.2016 17:38 22,3 C 23,2 C 20,6 C 23,3 C 23,3 C 1,0 C 56 % 77 % 26 % 1015,9 hPa 0,0 l/m 0,3 km/h (0 Bft) SW 225 0 min 13,1 C 23,3 C 0,0 km/h (0 Bft)
28.06.2016 17:43 22,2 C 23,2 C 20,6 C 23,5 C 23,5 C 1,3 C 57 % 77 % 34 % 1015,2 hPa 0,0 l/m 0,3 km/h (0 Bft) N-NO 22 0 min 13,3 C 23,5 C 0,0 km/h (0 Bft)
28.06.2016 17:48 22,2 C 23,2 C 20,8 C 23,9 C 23,9 C 1,7 C 56 % 76 % 45 % 1015,2 hPa 0,0 l/m 0,3 km/h (0 Bft) N-NW 337 0 min 13,0 C 23,9 C 2,1 km/h (1 Bft)
28.06.2016 17:53 22,3 C 23,2 C 20,8 C 23,9 C 23,9 C 1,6 C 56 % 74 % 42 % 1015,2 hPa 0,0 l/m 1,0 km/h (0 Bft) NW 315 0 min 13,1 C 23,9 C 3,2 km/h (1 Bft)
28.06.2016 17:58 22,2 C 23,2 C 20,9 C 24,1 C 24,1 C 1,9 C 57 % 75 % 50 % 1015,2 hPa 0,0 l/m 1,1 km/h (1 Bft) S 180 0 min 13,3 C 24,1 C 0,0 km/h (0 Bft)
28.06.2016 18:03 22,3 C 23,2 C 20,8 C 24,3 C 24,3 C 2,0 C 56 % 75 % 53 % 1015,2 hPa 0,0 l/m 0,8 km/h (0 Bft) NW 315 0 min 13,1 C 24,3 C 0,0 km/h (0 Bft)
28.06.2016 18:08 22,3 C 23,2 C 20,7 C 24,1 C 24,1 C 1,8 C 56 % 74 % 47 % 1015,2 hPa 0,0 l/m 0,3 km/h (0 Bft) O-SO 112 0 min 13,1 C 24,1 C 0,0 km/h (0 Bft)
28.06.2016 18:15 22,2 C 23,2 C 20,7 C 23,9 C 23,9 C 1,7 C 56 % 74 % 45 % 1015,2 hPa 0,0 l/m 0,3 km/h (0 Bft) NW 315 0 min 13,0 C 23,9 C 0,0 km/h (0 Bft)
28.06.2016 18:20 22,1 C 23,2 C 20,7 C 23,7 C 23,7 C 1,6 C 57 % 74 % 42 % 1015,2 hPa 0,0 l/m 0,2 km/h (0 Bft) O-SO 112 0 min 13,2 C 23,7 C 0,0 km/h (0 Bft)
28.06.2016 18:25 22,0 C 23,2 C 20,7 C 23,5 C 23,5 C 1,5 C 58 % 74 % 39 % 1014,9 hPa 0,0 l/m 0,2 km/h (0 Bft) NO 45 0 min 13,3 C 23,5 C 0,0 km/h (0 Bft)
28.06.2016 18:30 22,0 C 23,2 C 20,7 C 23,4 C 23,4 C 1,4 C 59 % 75 % 37 % 1014,9 hPa 0,0 l/m 0,0 km/h (0 Bft) SO 135 0 min 13,6 C 23,4 C 0,0 km/h (0 Bft)
28.06.2016 18:35 22,0 C 23,3 C 20,6 C 23,4 C 23,4 C 1,4 C 59 % 76 % 37 % 1014,9 hPa 0,0 l/m 0,0 km/h (0 Bft) O 90 0 min 13,6 C 23,4 C 0,0 km/h (0 Bft)
28.06.2016 18:53 21,9 C 23,3 C 20,5 C 23,5 C 23,5 C 1,6 C 59 % 75 % 42 % 1014,9 hPa 0,0 l/m 0,3 km/h (0 Bft) N 0 0 min 13,5 C 23,5 C 0,0 km/h (0 Bft)
28.06.2016 19:15 21,7 C 23,3 C 20,1 C 22,1 C 22,1 C 0,4 C 61 % 74 % 11 % 1014,8 hPa 0,0 l/m 0,0 km/h (0 Bft) SO 135 0 min 13,8 C 22,1 C 0,0 km/h (0 Bft)
28.06.2016 19:35 21,3 C 23,3 C 19,9 C 21,5 C 21,5 C 0,2 C 61 % 74 % 5 % 1014,8 hPa 0,0 l/m 0,0 km/h (0 Bft) N-NO 22 0 min 13,5 C 21,5 C 0,0 km/h (0 Bft)
28.06.2016 19:40 21,3 C 23,3 C 19,8 C 21,3 C 21,2 C 0,0 C 62 % 76 % 0 % 1014,8 hPa 0,0 l/m 0,0 km/h (0 Bft) N-NO 22 0 min 13,7 C 21,2 C 0,0 km/h (0 Bft)
28.06.2016 19:45 21,1 C 23,3 C 19,7 C 21,1 C 21,1 C 0,0 C 63 % 76 % 0 % 1014,9 hPa 0,0 l/m 0,0 km/h (0 Bft) N-NO 22 0 min 13,8 C 21,1 C 0,0 km/h (0 Bft)
28.06.2016 19:55 21,1 C 23,4 C 19,7 C 21,2 C 21,2 C 0,1 C 64 % 78 % 3 % 1014,9 hPa 0,0 l/m 0,0 km/h (0 Bft) O-NO 67 0 min 14,0 C 21,2 C 0,0 km/h (0 Bft)
28.06.2016 20:00 21,1 C 23,4 C 19,7 C 21,3 C 21,3 C 0,2 C 67 % 78 % 5 % 1014,9 hPa 0,0 l/m 0,0 km/h (0 Bft) O-NO 67 0 min 14,7 C 21,3 C 0,0 km/h (0 Bft)
28.06.2016 20:10 20,9 C 23,4 C 19,6 C 21,0 C 21,0 C 0,1 C 67 % 78 % 3 % 1014,8 hPa 0,0 l/m 0,0 km/h (0 Bft) O-NO 67 0 min 14,5 C 21,0 C 0,0 km/h (0 Bft)
28.06.2016 20:13 20,9 C 23,4 C 19,7 C 20,9 C 20,9 C 0,0 C 67 % 77 % 0 % 1014,8 hPa 0,0 l/m 0,0 km/h (0 Bft) O-NO 67 0 min 14,5 C 20,9 C 0,0 km/h (0 Bft)
28.06.2016 20:18 20,8 C 23,4 C 19,6 C 20,8 C 20,7 C 0,0 C 68 % 77 % 0 % 1014,8 hPa 0,0 l/m 0,0 km/h (0 Bft) O-NO 67 0 min 14,7 C 20,7 C 0,0 km/h (0 Bft)
28.06.2016 20:23 20,8 C 23,4 C 19,6 C 20,8 C 20,7 C 0,0 C 68 % 78 % 0 % 1014,2 hPa 0,0 l/m 0,0 km/h (0 Bft) O-NO 67 0 min 14,7 C 20,7 C 0,0 km/h (0 Bft)
28.06.2016 20:28 20,8 C 23,5 C 19,5 C 20,7 C 20,5 C 0,0 C 69 % 79 % 0 % 1014,2 hPa 0,0 l/m 0,0 km/h (0 Bft) W 270 0 min 14,9 C 20,5 C 0,0 km/h (0 Bft)
28.06.2016 20:33 20,6 C 23,5 C 19,4 C 20,5 C 20,3 C 0,0 C 69 % 78 % 0 % 1014,2 hPa 0,0 l/m 0,0 km/h (0 Bft) W 270 0 min 14,7 C 20,3 C 0,0 km/h (0 Bft)
28.06.2016 20:38 20,5 C 23,5 C 19,4 C 20,4 C 20,1 C 0,0 C 70 % 80 % 0 % 1014,2 hPa 0,0 l/m 0,0 km/h (0 Bft) NO 45 0 min 14,8 C 20,1 C 0,0 km/h (0 Bft)
28.06.2016 20:43 20,5 C 23,5 C 19,2 C 20,3 C 20,0 C 0,0 C 70 % 80 % 0 % 1014,6 hPa 0,0 l/m 0,0 km/h (0 Bft) NO 45 0 min 14,8 C 20,0 C 0,0 km/h (0 Bft)
28.06.2016 20:48 20,2 C 23,5 C 19,2 C 20,1 C 19,8 C 0,0 C 70 % 80 % 0 % 1014,6 hPa 0,0 l/m 0,0 km/h (0 Bft) NO 45 0 min 14,5 C 19,8 C 0,0 km/h (0 Bft)
28.06.2016 20:53 20,2 C 23,5 C 19,1 C 20,0 C 19,6 C 0,0 C 71 % 80 % 0 % 1014,6 hPa 0,0 l/m 0,0 km/h (0 Bft) N-NW 337 0 min 14,8 C 19,6 C 0,0 km/h (0 Bft)
28.06.2016 20:58 20,1 C 23,5 C 19,0 C 19,9 C 19,4 C 0,0 C 71 % 81 % 0 % 1014,6 hPa 0,0 l/m 0,0 km/h (0 Bft) N-NW 337 0 min 14,7 C 19,4 C 0,0 km/h (0 Bft)
28.06.2016 21:03 20,0 C 23,5 C 19,0 C 19,8 C 19,3 C 0,0 C 72 % 81 % 0 % 1015,1 hPa 0,0 l/m 0,0 km/h (0 Bft) NO 45 0 min 14,8 C 19,3 C 0,0 km/h (0 Bft)
28.06.2016 21:08 19,9 C 23,5 C 18,9 C 19,7 C 19,2 C 0,0 C 73 % 81 % 0 % 1015,1 hPa 0,0 l/m 0,0 km/h (0 Bft) NO 45 0 min 14,9 C 19,2 C 0,0 km/h (0 Bft)
28.06.2016 21:13 19,7 C 23,5 C 18,8 C 19,5 C 19,1 C 0,0 C 73 % 81 % 0 % 1015,1 hPa 0,0 l/m 0,0 km/h (0 Bft) N-NO 22 0 min 14,7 C 19,1 C 0,0 km/h (0 Bft)
28.06.2016 21:18 19,6 C 23,5 C 18,9 C 19,4 C 19,0 C 0,0 C 73 % 81 % 0 % 1015,1 hPa 0,0 l/m 0,0 km/h (0 Bft) O-NO 67 0 min 14,6 C 19,0 C 0,0 km/h (0 Bft)
28.06.2016 21:23 19,5 C 23,5 C 18,8 C 19,3 C 18,9 C 0,0 C 73 % 81 % 0 % 1014,4 hPa 0,0 l/m 0,0 km/h (0 Bft) O-NO 67 0 min 14,5 C 18,9 C 0,0 km/h (0 Bft)
28.06.2016 21:28 19,3 C 23,5 C 18,7 C 19,2 C 18,9 C 0,0 C 74 % 82 % 0 % 1014,4 hPa 0,0 l/m 0,0 km/h (0 Bft) O-NO 67 0 min 14,5 C 18,9 C 0,0 km/h (0 Bft)
28.06.2016 21:33 19,2 C 23,5 C 18,6 C 19,0 C 18,7 C 0,0 C 74 % 82 % 0 % 1014,4 hPa 0,0 l/m 0,0 km/h (0 Bft) O-NO 67 0 min 14,4 C 18,7 C 0,0 km/h (0 Bft)
28.06.2016 21:38 19,1 C 23,5 C 18,5 C 18,9 C 18,5 C 0,0 C 74 % 82 % 0 % 1014,4 hPa 0,0 l/m 0,0 km/h (0 Bft) O-NO 67 0 min 14,4 C 18,5 C 0,0 km/h (0 Bft)
28.06.2016 21:43 19,1 C 23,5 C 18,4 C 18,8 C 18,3 C 0,0 C 75 % 82 % 0 % 1014,4 hPa 0,0 l/m 0,0 km/h (0 Bft) O-NO 67 0 min 14,6 C 18,3 C 0,0 km/h (0 Bft)
28.06.2016 21:48 18,8 C 23,5 C 18,3 C 18,6 C 18,1 C 0,0 C 75 % 83 % 0 % 1014,4 hPa 0,0 l/m 0,0 km/h (0 Bft) O-NO 67 0 min 14,3 C 18,1 C 0,0 km/h (0 Bft)
28.06.2016 21:53 18,6 C 23,5 C 18,2 C 18,3 C 17,8 C 0,0 C 75 % 83 % 0 % 1014,4 hPa 0,0 l/m 0,0 km/h (0 Bft) O-NO 67 0 min 14,1 C 17,8 C 0,0 km/h (0 Bft)
28.06.2016 21:58 18,4 C 23,5 C 18,1 C 18,1 C 17,4 C 0,0 C 75 % 83 % 0 % 1014,4 hPa 0,0 l/m 0,0 km/h (0 Bft) O-NO 67 0 min 13,9 C 17,4 C 0,0 km/h (0 Bft)
28.06.2016 22:03 18,3 C 23,5 C 17,9 C 18,0 C 17,3 C 0,0 C 75 % 83 % 0 % 1014,3 hPa 0,0 l/m 0,0 km/h (0 Bft) O-NO 67 0 min 13,8 C 17,3 C 0,0 km/h (0 Bft)
28.06.2016 22:08 18,1 C 23,6 C 17,9 C 17,8 C 17,1 C 0,0 C 76 % 83 % 0 % 1014,3 hPa 0,0 l/m 0,0 km/h (0 Bft) O-NO 67 0 min 13,8 C 17,1 C 0,0 km/h (0 Bft)
28.06.2016 22:13 17,9 C 23,6 C 17,7 C 17,6 C 17,1 C 0,0 C 76 % 84 % 0 % 1014,3 hPa 0,0 l/m 0,0 km/h (0 Bft) O-NO 67 0 min 13,6 C 17,1 C 0,0 km/h (0 Bft)
28.06.2016 22:18 17,6 C 23,6 C 17,7 C 17,4 C 17,1 C 0,0 C 77 % 84 % 0 % 1014,3 hPa 0,0 l/m 0,0 km/h (0 Bft) O-NO 67 0 min 13,5 C 17,1 C 0,0 km/h (0 Bft)
28.06.2016 22:23 17,5 C 23,6 C 17,6 C 17,3 C 17,0 C 0,0 C 77 % 84 % 0 % 1014,2 hPa 0,0 l/m 0,0 km/h (0 Bft) O-NO 67 0 min 13,4 C 17,0 C 0,0 km/h (0 Bft)
28.06.2016 22:28 17,3 C 23,6 C 17,4 C 17,1 C 16,8 C 0,0 C 78 % 85 % 0 % 1014,2 hPa 0,0 l/m 0,0 km/h (0 Bft) O-NO 67 0 min 13,4 C 16,8 C 0,0 km/h (0 Bft)
28.06.2016 22:33 17,2 C 23,5 C 17,4 C 17,0 C 16,6 C 0,0 C 78 % 84 % 0 % 1014,2 hPa 0,0 l/m 0,0 km/h (0 Bft) O-NO 67 0 min 13,3 C 16,6 C 0,0 km/h (0 Bft)
28.06.2016 22:38 17,1 C 23,6 C 17,2 C 16,8 C 16,2 C 0,0 C 78 % 85 % 0 % 1014,2 hPa 0,0 l/m 0,0 km/h (0 Bft) O-NO 67 0 min 13,2 C 16,2 C 0,0 km/h (0 Bft)
28.06.2016 22:43 17,0 C 23,6 C 17,2 C 16,6 C 15,9 C 0,0 C 78 % 85 % 0 % 1013,9 hPa 0,0 l/m 0,0 km/h (0 Bft) O-NO 67 0 min 13,1 C 15,9 C 0,0 km/h (0 Bft)
28.06.2016 22:48 16,8 C 23,6 C 17,0 C 16,4 C 15,7 C 0,0 C 78 % 86 % 0 % 1013,9 hPa 0,0 l/m 0,0 km/h (0 Bft) O-NO 67 0 min 12,9 C 15,7 C 0,0 km/h (0 Bft)
28.06.2016 22:53 16,7 C 23,6 C 17,0 C 16,3 C 15,5 C 0,0 C 78 % 86 % 0 % 1013,9 hPa 0,0 l/m 0,0 km/h (0 Bft) O-NO 67 0 min 12,8 C 15,5 C 0,0 km/h (0 Bft)
28.06.2016 22:58 16,4 C 23,7 C 16,7 C 16,0 C 15,3 C 0,0 C 79 % 86 % 0 % 1013,9 hPa 0,0 l/m 0,0 km/h (0 Bft) O-NO 67 0 min 12,7 C 15,3 C 0,0 km/h (0 Bft)
28.06.2016 23:03 16,3 C 23,8 C 16,6 C 15,9 C 15,2 C 0,0 C 79 % 86 % 0 % 1013,6 hPa 0,0 l/m 0,0 km/h (0 Bft) O-NO 67 0 min 12,6 C 15,2 C 0,0 km/h (0 Bft)
28.06.2016 23:08 16,1 C 23,8 C 16,5 C 15,7 C 15,0 C 0,0 C 79 % 86 % 0 % 1013,6 hPa 0,0 l/m 0,0 km/h (0 Bft) O-NO 67 0 min 12,5 C 15,0 C 0,0 km/h (0 Bft)
28.06.2016 23:13 15,9 C 23,8 C 16,5 C 15,6 C 15,0 C 0,0 C 79 % 87 % 0 % 1013,6 hPa 0,0 l/m 0,0 km/h (0 Bft) O-NO 67 0 min 12,3 C 15,0 C 0,0 km/h (0 Bft)
28.06.2016 23:18 15,6 C 23,8 C 16,4 C 15,3 C 14,8 C 0,0 C 80 % 87 % 0 % 1013,6 hPa 0,0 l/m 0,0 km/h (0 Bft) O-NO 67 0 min 12,2 C 14,8 C 0,0 km/h (0 Bft)
28.06.2016 23:23 15,5 C 23,8 C 16,3 C 15,3 C 14,8 C 0,0 C 80 % 87 % 0 % 1013,8 hPa 0,0 l/m 0,0 km/h (0 Bft) O-NO 67 0 min 12,1 C 14,8 C 0,0 km/h (0 Bft)
28.06.2016 23:28 15,3 C 23,8 C 16,3 C 15,1 C 14,7 C 0,0 C 80 % 87 % 0 % 1013,8 hPa 0,0 l/m 0,0 km/h (0 Bft) O-NO 67 0 min 11,9 C 14,7 C 0,0 km/h (0 Bft)
28.06.2016 23:33 15,2 C 23,8 C 16,1 C 15,0 C 14,6 C 0,0 C 81 % 87 % 0 % 1013,8 hPa 0,0 l/m 0,0 km/h (0 Bft) O-NO 67 0 min 12,0 C 14,6 C 0,0 km/h (0 Bft)
28.06.2016 23:38 15,1 C 23,8 C 16,0 C 14,9 C 14,5 C 0,0 C 81 % 87 % 0 % 1013,8 hPa 0,0 l/m 0,0 km/h (0 Bft) O-NO 67 0 min 11,9 C 14,5 C 0,0 km/h (0 Bft)
28.06.2016 23:43 14,9 C 23,8 C 15,9 C 14,8 C 14,5 C 0,0 C 82 % 88 % 0 % 1013,6 hPa 0,0 l/m 0,0 km/h (0 Bft) O-NO 67 0 min 11,9 C 14,5 C 0,0 km/h (0 Bft)
28.06.2016 23:48 14,8 C 23,8 C 15,9 C 14,6 C 14,3 C 0,0 C 82 % 88 % 0 % 1013,6 hPa 0,0 l/m 0,0 km/h (0 Bft) O-NO 67 0 min 11,8 C 14,3 C 0,0 km/h (0 Bft)
28.06.2016 23:53 14,6 C 23,8 C 15,8 C 14,5 C 14,3 C 0,0 C 82 % 88 % 0 % 1013,6 hPa 0,0 l/m 0,0 km/h (0 Bft) N-NO 22 0 min 11,6 C 14,3 C 0,0 km/h (0 Bft)
28.06.2016 23:58 14,5 C 23,8 C 15,7 C 14,4 C 14,2 C 0,0 C 82 % 88 % 0 % 1013,6 hPa 0,0 l/m 0,0 km/h (0 Bft) N-NO 22 0 min 11,5 C 14,2 C 0,0 km/h (0 Bft)
_ Min-Zeit 05:50 09:58 05:40 05:50 05:50 00:10 16:10 17:53 00:00 23:03 - 00:00 - - - 01:10 05:50 00:00
Minimum _ 13,9 C 0,0 C 14,8 C 14,1 C 14,1 C 0,0 C 52 % 74 % 0 % 1013,6 hPa - 0,0 km/h (0 Bft) - - - 10,5 C 14,1 C 0,0 km/h (0 Bft)
_ Max-Zeit 14:40 03:30 16:05 14:40 14:40 13:20 06:55 03:53 12:15 01:25 03:35 14:35 - - 16:05 13:20 14:40 13:00
Maximum _ 25,4 C 23,9 C 22,3 C 31,2 C 31,2 C 6,6 C 90 % 89 % 100 % 1018,1 hPa 0,7 l/m 2,4 km/h
S (1 Bft)
- - 18 min 16,5 C 31,2 C 8,0 km/h
S-SW (2 Bft)
Durchschnitt _ 18,1 C 22,9 C 17,8 C 19,8 C 19,7 C 1,7 C 74 % 81 % 36 % 1016,4 hPa #2,1 l/m 0,5 km/h (0 Bft) SW - #4:55 h 13,3 C 19,7 C 0,9 km/h (0 Bft)
2016 www.wetterstation-wechselburg.de